Terminal Aerodrome Forecast
Issued by NWS

Home | Current Version | Previous Version | Text Only | Print | Product List | Glossary On
Versions: 1 2 3 4 5 6 7 8 9 10 11 12 13 14 15 16 17 18 19 20 21 22 23 24 25 26 27 28 29 30 31 32 33 34 35 36 37 38
486
FTUS41 KOKX 241723
TAFGON
TAF
KGON 241723Z 2418/2518 02020G32KT 4SM -RA BR OVC015
     FM242300 35014G24KT 4SM -RA BR OVC008
     FM250800 33012G20KT 6SM -DZ BR OVC015
     FM251100 31014G21KT P6SM OVC040
     FM251300 30015G22KT P6SM SCT250=

USA.gov is the U.S. government's official web portal to all federal, state and local government web resources and services.